sensor_id;sensor_type;location;lat;lon;timestamp;temperature;humidity
32215;DHT22;18708;53.124;23.190;2023-06-22T00:00:50;20.80;99.90
32215;DHT22;18708;53.124;23.190;2023-06-22T00:03:18;20.80;99.90
32215;DHT22;18708;53.124;23.190;2023-06-22T00:05:45;20.70;99.90
32215;DHT22;18708;53.124;23.190;2023-06-22T00:08:11;20.70;99.90
32215;DHT22;18708;53.124;23.190;2023-06-22T00:10:36;20.60;99.90
32215;DHT22;18708;53.124;23.190;2023-06-22T00:13:02;20.70;99.90
32215;DHT22;18708;53.124;23.190;2023-06-22T00:15:28;20.70;99.90
32215;DHT22;18708;53.124;23.190;2023-06-22T00:17:54;20.70;99.90
32215;DHT22;18708;53.124;23.190;2023-06-22T00:20:20;20.70;99.90
32215;DHT22;18708;53.124;23.190;2023-06-22T00:22:45;20.70;99.90
32215;DHT22;18708;53.124;23.190;2023-06-22T00:25:11;20.70;99.90
32215;DHT22;18708;53.124;23.190;2023-06-22T00:27:37;20.70;99.90
32215;DHT22;18708;53.124;23.190;2023-06-22T00:30:03;20.70;99.90
32215;DHT22;18708;53.124;23.190;2023-06-22T00:32:29;20.70;99.90
32215;DHT22;18708;53.124;23.190;2023-06-22T00:34:55;20.80;99.90
32215;DHT22;18708;53.124;23.190;2023-06-22T00:37:20;20.70;99.90
32215;DHT22;18708;53.124;23.190;2023-06-22T00:39:51;20.70;99.90
32215;DHT22;18708;53.124;23.190;2023-06-22T00:42:17;20.70;99.90
32215;DHT22;18708;53.124;23.190;2023-06-22T00:44:43;20.70;99.90
32215;DHT22;18708;53.124;23.190;2023-06-22T00:47:11;20.70;99.90
32215;DHT22;18708;53.124;23.190;2023-06-22T00:49:38;20.70;99.90
32215;DHT22;18708;53.124;23.190;2023-06-22T00:52:05;20.80;99.90
32215;DHT22;18708;53.124;23.190;2023-06-22T00:54:35;20.80;99.90
32215;DHT22;18708;53.124;23.190;2023-06-22T00:57:02;20.90;99.90
32215;DHT22;18708;53.124;23.190;2023-06-22T00:59:28;20.80;99.90
32215;DHT22;18708;53.124;23.190;2023-06-22T01:01:54;20.70;99.90
32215;DHT22;18708;53.124;23.190;2023-06-22T01:04:24;20.70;99.90
32215;DHT22;18708;53.124;23.190;2023-06-22T01:07:02;20.60;99.90
32215;DHT22;18708;53.124;23.190;2023-06-22T01:09:33;20.60;99.90
32215;DHT22;18708;53.124;23.190;2023-06-22T01:12:04;20.60;99.90
32215;DHT22;18708;53.124;23.190;2023-06-22T01:14:42;20.50;99.90
32215;DHT22;18708;53.124;23.190;2023-06-22T01:17:10;20.50;99.90
32215;DHT22;18708;53.124;23.190;2023-06-22T01:19:50;20.50;99.90
32215;DHT22;18708;53.124;23.190;2023-06-22T01:22:30;20.50;99.90
32215;DHT22;18708;53.124;23.190;2023-06-22T01:25:20;20.40;99.90
32215;DHT22;18708;53.124;23.190;2023-06-22T01:28:04;20.40;99.90
32215;DHT22;18708;53.124;23.190;2023-06-22T01:30:31;20.40;99.90
32215;DHT22;18708;53.124;23.190;2023-06-22T01:33:01;20.50;99.90
32215;DHT22;18708;53.124;23.190;2023-06-22T01:35:28;20.50;99.90
32215;DHT22;18708;53.124;23.190;2023-06-22T01:37:55;20.50;99.90
32215;DHT22;18708;53.124;23.190;2023-06-22T01:40:21;20.40;99.90
32215;DHT22;18708;53.124;23.190;2023-06-22T01:42:48;20.50;99.90
32215;DHT22;18708;53.124;23.190;2023-06-22T01:45:15;20.50;99.90
32215;DHT22;18708;53.124;23.190;2023-06-22T01:47:42;20.50;99.90
32215;DHT22;18708;53.124;23.190;2023-06-22T01:50:09;20.50;99.90
32215;DHT22;18708;53.124;23.190;2023-06-22T01:52:34;20.60;99.90
32215;DHT22;18708;53.124;23.190;2023-06-22T01:55:00;20.60;99.90
32215;DHT22;18708;53.124;23.190;2023-06-22T01:57:27;20.60;99.90
32215;DHT22;18708;53.124;23.190;2023-06-22T02:00:00;20.70;99.90
32215;DHT22;18708;53.124;23.190;2023-06-22T02:02:33;20.70;99.90
32215;DHT22;18708;53.124;23.190;2023-06-22T02:05:07;20.60;99.90
32215;DHT22;18708;53.124;23.190;2023-06-22T02:07:43;20.60;99.90
32215;DHT22;18708;53.124;23.190;2023-06-22T02:10:10;20.60;99.90
32215;DHT22;18708;53.124;23.190;2023-06-22T02:12:39;20.50;99.90
32215;DHT22;18708;53.124;23.190;2023-06-22T02:15:07;20.50;99.90
32215;DHT22;18708;53.124;23.190;2023-06-22T02:17:33;20.40;99.90
32215;DHT22;18708;53.124;23.190;2023-06-22T02:20:02;20.40;99.90
32215;DHT22;18708;53.124;23.190;2023-06-22T02:22:28;20.40;99.90
32215;DHT22;18708;53.124;23.190;2023-06-22T02:24:54;20.40;99.90
32215;DHT22;18708;53.124;23.190;2023-06-22T02:27:20;20.40;99.90
32215;DHT22;18708;53.124;23.190;2023-06-22T02:29:45;20.40;99.90
32215;DHT22;18708;53.124;23.190;2023-06-22T02:32:11;20.40;99.90
32215;DHT22;18708;53.124;23.190;2023-06-22T02:34:37;20.40;99.90
32215;DHT22;18708;53.124;23.190;2023-06-22T02:37:02;20.40;99.90
32215;DHT22;18708;53.124;23.190;2023-06-22T02:39:28;20.50;99.90
32215;DHT22;18708;53.124;23.190;2023-06-22T02:41:54;20.50;99.90
32215;DHT22;18708;53.124;23.190;2023-06-22T02:44:20;20.40;99.90
32215;DHT22;18708;53.124;23.190;2023-06-22T02:46:48;20.50;99.90
32215;DHT22;18708;53.124;23.190;2023-06-22T02:49:13;20.50;99.90
32215;DHT22;18708;53.124;23.190;2023-06-22T02:51:44;20.50;99.90
32215;DHT22;18708;53.124;23.190;2023-06-22T02:54:10;20.50;99.90
32215;DHT22;18708;53.124;23.190;2023-06-22T02:56:35;20.50;99.90
32215;DHT22;18708;53.124;23.190;2023-06-22T02:59:02;20.40;99.90
32215;DHT22;18708;53.124;23.190;2023-06-22T03:01:28;20.20;99.90
32215;DHT22;18708;53.124;23.190;2023-06-22T03:03:59;20.10;99.90
32215;DHT22;18708;53.124;23.190;2023-06-22T03:06:24;19.90;99.90
32215;DHT22;18708;53.124;23.190;2023-06-22T03:08:59;19.90;99.90
32215;DHT22;18708;53.124;23.190;2023-06-22T03:11:25;19.90;99.90
32215;DHT22;18708;53.124;23.190;2023-06-22T03:13:50;20.00;99.90
32215;DHT22;18708;53.124;23.190;2023-06-22T03:16:17;20.10;99.90
32215;DHT22;18708;53.124;23.190;2023-06-22T03:18:43;20.10;99.90
32215;DHT22;18708;53.124;23.190;2023-06-22T03:21:09;20.10;99.90
32215;DHT22;18708;53.124;23.190;2023-06-22T03:23:35;20.00;99.90
32215;DHT22;18708;53.124;23.190;2023-06-22T03:26:02;19.90;99.90
32215;DHT22;18708;53.124;23.190;2023-06-22T03:28:27;19.90;99.90
32215;DHT22;18708;53.124;23.190;2023-06-22T03:30:53;19.80;99.90
32215;DHT22;18708;53.124;23.190;2023-06-22T03:33:19;19.80;99.90
32215;DHT22;18708;53.124;23.190;2023-06-22T03:35:45;19.80;99.90
32215;DHT22;18708;53.124;23.190;2023-06-22T03:38:11;19.80;99.90
32215;DHT22;18708;53.124;23.190;2023-06-22T03:40:36;19.80;99.90
32215;DHT22;18708;53.124;23.190;2023-06-22T03:43:02;19.90;99.90
32215;DHT22;18708;53.124;23.190;2023-06-22T03:45:27;20.00;99.90
32215;DHT22;18708;53.124;23.190;2023-06-22T03:47:53;20.00;99.90
32215;DHT22;18708;53.124;23.190;2023-06-22T03:50:19;20.10;99.90
32215;DHT22;18708;53.124;23.190;2023-06-22T03:52:46;20.20;99.90
32215;DHT22;18708;53.124;23.190;2023-06-22T03:55:12;20.20;99.90
32215;DHT22;18708;53.124;23.190;2023-06-22T03:57:38;20.20;99.90
32215;DHT22;18708;53.124;23.190;2023-06-22T04:00:04;20.30;99.90
32215;DHT22;18708;53.124;23.190;2023-06-22T04:02:31;20.30;99.90
32215;DHT22;18708;53.124;23.190;2023-06-22T04:04:57;20.30;99.90
32215;DHT22;18708;53.124;23.190;2023-06-22T04:07:22;20.30;99.90
32215;DHT22;18708;53.124;23.190;2023-06-22T04:09:48;20.30;99.90
32215;DHT22;18708;53.124;23.190;2023-06-22T04:12:14;20.30;99.90
32215;DHT22;18708;53.124;23.190;2023-06-22T04:14:39;20.30;99.90
32215;DHT22;18708;53.124;23.190;2023-06-22T04:17:05;20.40;99.90
32215;DHT22;18708;53.124;23.190;2023-06-22T04:19:31;20.40;99.90
32215;DHT22;18708;53.124;23.190;2023-06-22T04:21:56;20.40;99.90
32215;DHT22;18708;53.124;23.190;2023-06-22T04:24:22;20.40;99.90
32215;DHT22;18708;53.124;23.190;2023-06-22T04:26:48;20.50;99.90
32215;DHT22;18708;53.124;23.190;2023-06-22T04:29:14;20.50;99.90
32215;DHT22;18708;53.124;23.190;2023-06-22T04:31:40;20.50;99.90
32215;DHT22;18708;53.124;23.190;2023-06-22T04:34:07;20.50;99.90
32215;DHT22;18708;53.124;23.190;2023-06-22T04:36:37;20.40;99.90
32215;DHT22;18708;53.124;23.190;2023-06-22T04:39:07;20.40;99.90
32215;DHT22;18708;53.124;23.190;2023-06-22T04:41:38;20.40;99.90
32215;DHT22;18708;53.124;23.190;2023-06-22T04:44:11;20.40;99.90
32215;DHT22;18708;53.124;23.190;2023-06-22T04:46:37;20.50;99.90
32215;DHT22;18708;53.124;23.190;2023-06-22T04:49:07;20.70;99.90
32215;DHT22;18708;53.124;23.190;2023-06-22T04:51:39;20.70;99.90
32215;DHT22;18708;53.124;23.190;2023-06-22T04:54:06;20.70;99.90
32215;DHT22;18708;53.124;23.190;2023-06-22T04:56:32;20.80;99.90
32215;DHT22;18708;53.124;23.190;2023-06-22T04:58:58;20.90;99.90
32215;DHT22;18708;53.124;23.190;2023-06-22T05:01:24;21.10;99.90
32215;DHT22;18708;53.124;23.190;2023-06-22T05:03:51;21.20;99.90
32215;DHT22;18708;53.124;23.190;2023-06-22T05:06:21;21.20;99.90
32215;DHT22;18708;53.124;23.190;2023-06-22T05:08:47;21.30;99.90
32215;DHT22;18708;53.124;23.190;2023-06-22T05:11:13;21.40;99.90
32215;DHT22;18708;53.124;23.190;2023-06-22T05:13:38;21.50;99.90
32215;DHT22;18708;53.124;23.190;2023-06-22T05:16:04;21.60;99.90
32215;DHT22;18708;53.124;23.190;2023-06-22T05:18:31;21.60;99.90
32215;DHT22;18708;53.124;23.190;2023-06-22T05:20:58;21.70;99.90
32215;DHT22;18708;53.124;23.190;2023-06-22T05:23:23;21.80;99.90
32215;DHT22;18708;53.124;23.190;2023-06-22T05:25:49;21.90;99.90
32215;DHT22;18708;53.124;23.190;2023-06-22T05:28:15;21.90;99.90
32215;DHT22;18708;53.124;23.190;2023-06-22T05:30:40;22.00;99.90
32215;DHT22;18708;53.124;23.190;2023-06-22T05:33:06;22.00;99.90
32215;DHT22;18708;53.124;23.190;2023-06-22T05:35:32;21.90;99.90
32215;DHT22;18708;53.124;23.190;2023-06-22T05:37:58;21.90;99.90
32215;DHT22;18708;53.124;23.190;2023-06-22T05:40:23;22.00;99.90
32215;DHT22;18708;53.124;23.190;2023-06-22T05:42:49;21.90;99.90
32215;DHT22;18708;53.124;23.190;2023-06-22T05:45:15;22.00;99.90
32215;DHT22;18708;53.124;23.190;2023-06-22T05:47:40;22.20;99.90
32215;DHT22;18708;53.124;23.190;2023-06-22T05:50:06;22.10;99.90
32215;DHT22;18708;53.124;23.190;2023-06-22T05:52:34;22.30;99.90
32215;DHT22;18708;53.124;23.190;2023-06-22T05:55:01;22.30;99.90
32215;DHT22;18708;53.124;23.190;2023-06-22T05:57:27;22.40;99.90
32215;DHT22;18708;53.124;23.190;2023-06-22T05:59:53;22.50;99.90
32215;DHT22;18708;53.124;23.190;2023-06-22T06:02:19;22.50;99.90
32215;DHT22;18708;53.124;23.190;2023-06-22T06:04:45;22.50;99.90
32215;DHT22;18708;53.124;23.190;2023-06-22T06:07:11;22.60;99.90
32215;DHT22;18708;53.124;23.190;2023-06-22T06:09:36;22.80;99.90
32215;DHT22;18708;53.124;23.190;2023-06-22T06:12:02;23.00;99.90
32215;DHT22;18708;53.124;23.190;2023-06-22T06:14:28;23.20;99.90
32215;DHT22;18708;53.124;23.190;2023-06-22T06:16:54;23.20;99.90
32215;DHT22;18708;53.124;23.190;2023-06-22T06:19:20;23.40;99.90
32215;DHT22;18708;53.124;23.190;2023-06-22T06:21:45;23.70;99.90
32215;DHT22;18708;53.124;23.190;2023-06-22T06:24:12;23.80;99.90
32215;DHT22;18708;53.124;23.190;2023-06-22T06:26:37;24.00;99.90
32215;DHT22;18708;53.124;23.190;2023-06-22T06:29:03;24.00;99.90
32215;DHT22;18708;53.124;23.190;2023-06-22T06:31:29;24.00;99.90
32215;DHT22;18708;53.124;23.190;2023-06-22T06:33:55;24.30;99.90
32215;DHT22;18708;53.124;23.190;2023-06-22T06:36:21;24.40;99.90
32215;DHT22;18708;53.124;23.190;2023-06-22T06:38:47;24.50;99.90
32215;DHT22;18708;53.124;23.190;2023-06-22T06:41:14;24.70;99.90
32215;DHT22;18708;53.124;23.190;2023-06-22T06:43:40;24.80;99.90
32215;DHT22;18708;53.124;23.190;2023-06-22T06:46:08;24.80;99.90
32215;DHT22;18708;53.124;23.190;2023-06-22T06:48:34;24.80;99.90
32215;DHT22;18708;53.124;23.190;2023-06-22T06:51:00;24.90;99.90
32215;DHT22;18708;53.124;23.190;2023-06-22T06:53:26;25.20;99.90
32215;DHT22;18708;53.124;23.190;2023-06-22T06:55:52;25.40;99.90
32215;DHT22;18708;53.124;23.190;2023-06-22T06:58:18;25.50;99.90
32215;DHT22;18708;53.124;23.190;2023-06-22T07:00:43;25.80;99.90
32215;DHT22;18708;53.124;23.190;2023-06-22T07:03:09;26.20;99.90
32215;DHT22;18708;53.124;23.190;2023-06-22T07:05:35;26.20;99.90
32215;DHT22;18708;53.124;23.190;2023-06-22T07:08:01;26.20;99.90
32215;DHT22;18708;53.124;23.190;2023-06-22T07:10:27;26.10;99.90
32215;DHT22;18708;53.124;23.190;2023-06-22T07:12:53;26.00;99.90
32215;DHT22;18708;53.124;23.190;2023-06-22T07:15:19;26.20;99.90
32215;DHT22;18708;53.124;23.190;2023-06-22T07:17:45;26.70;99.90
32215;DHT22;18708;53.124;23.190;2023-06-22T07:20:11;27.30;99.90
32215;DHT22;18708;53.124;23.190;2023-06-22T07:22:44;27.60;99.90
32215;DHT22;18708;53.124;23.190;2023-06-22T07:25:12;27.60;99.90
32215;DHT22;18708;53.124;23.190;2023-06-22T07:27:56;27.60;99.90
32215;DHT22;18708;53.124;23.190;2023-06-22T07:30:22;27.70;99.90
32215;DHT22;18708;53.124;23.190;2023-06-22T07:32:48;27.60;99.90
32215;DHT22;18708;53.124;23.190;2023-06-22T07:35:14;28.00;99.90
32215;DHT22;18708;53.124;23.190;2023-06-22T07:37:42;28.10;99.90
32215;DHT22;18708;53.124;23.190;2023-06-22T07:40:08;28.40;99.90
32215;DHT22;18708;53.124;23.190;2023-06-22T07:42:34;28.70;99.90
32215;DHT22;18708;53.124;23.190;2023-06-22T07:45:00;28.60;99.90
32215;DHT22;18708;53.124;23.190;2023-06-22T07:47:26;28.70;99.90
32215;DHT22;18708;53.124;23.190;2023-06-22T07:49:54;28.50;99.90
32215;DHT22;18708;53.124;23.190;2023-06-22T07:52:21;28.70;99.90
32215;DHT22;18708;53.124;23.190;2023-06-22T07:54:47;28.50;99.90
32215;DHT22;18708;53.124;23.190;2023-06-22T07:57:12;28.60;99.90
32215;DHT22;18708;53.124;23.190;2023-06-22T07:59:38;28.50;99.90
32215;DHT22;18708;53.124;23.190;2023-06-22T08:02:05;29.00;99.90
32215;DHT22;18708;53.124;23.190;2023-06-22T08:04:30;29.70;99.90
32215;DHT22;18708;53.124;23.190;2023-06-22T08:06:59;29.90;99.90
32215;DHT22;18708;53.124;23.190;2023-06-22T08:09:25;29.50;99.90
32215;DHT22;18708;53.124;23.190;2023-06-22T08:11:50;29.10;99.90
32215;DHT22;18708;53.124;23.190;2023-06-22T08:14:16;28.70;99.90
32215;DHT22;18708;53.124;23.190;2023-06-22T08:16:42;28.70;99.90
32215;DHT22;18708;53.124;23.190;2023-06-22T08:19:08;28.70;99.90
32215;DHT22;18708;53.124;23.190;2023-06-22T08:21:33;28.30;99.90
32215;DHT22;18708;53.124;23.190;2023-06-22T08:23:59;28.60;99.90
32215;DHT22;18708;53.124;23.190;2023-06-22T08:26:24;29.00;99.90
32215;DHT22;18708;53.124;23.190;2023-06-22T08:28:50;29.10;99.90
32215;DHT22;18708;53.124;23.190;2023-06-22T08:31:16;29.30;99.90
32215;DHT22;18708;53.124;23.190;2023-06-22T08:33:41;29.40;99.90
32215;DHT22;18708;53.124;23.190;2023-06-22T08:36:09;30.00;99.90
32215;DHT22;18708;53.124;23.190;2023-06-22T08:38:36;30.00;99.90
32215;DHT22;18708;53.124;23.190;2023-06-22T08:41:02;30.00;99.90
32215;DHT22;18708;53.124;23.190;2023-06-22T08:43:28;30.20;99.90
32215;DHT22;18708;53.124;23.190;2023-06-22T08:45:53;30.50;99.90
32215;DHT22;18708;53.124;23.190;2023-06-22T08:48:19;30.50;96.90
32215;DHT22;18708;53.124;23.190;2023-06-22T08:50:45;30.30;96.50
32215;DHT22;18708;53.124;23.190;2023-06-22T08:53:10;29.90;96.90
32215;DHT22;18708;53.124;23.190;2023-06-22T08:55:36;29.70;97.90
32215;DHT22;18708;53.124;23.190;2023-06-22T08:58:02;29.80;99.70
32215;DHT22;18708;53.124;23.190;2023-06-22T09:00:29;30.10;97.60
32215;DHT22;18708;53.124;23.190;2023-06-22T09:02:58;30.20;98.00
32215;DHT22;18708;53.124;23.190;2023-06-22T09:05:24;30.60;98.80
32215;DHT22;18708;53.124;23.190;2023-06-22T09:07:53;30.70;98.60
32215;DHT22;18708;53.124;23.190;2023-06-22T09:10:22;30.70;96.90
32215;DHT22;18708;53.124;23.190;2023-06-22T09:12:48;30.70;97.10
32215;DHT22;18708;53.124;23.190;2023-06-22T09:15:13;30.70;96.70
32215;DHT22;18708;53.124;23.190;2023-06-22T09:17:40;30.50;96.80
32215;DHT22;18708;53.124;23.190;2023-06-22T09:20:07;30.20;99.90
32215;DHT22;18708;53.124;23.190;2023-06-22T09:22:35;30.00;98.10
32215;DHT22;18708;53.124;23.190;2023-06-22T09:25:01;29.70;98.90
32215;DHT22;18708;53.124;23.190;2023-06-22T09:27:28;29.30;99.90
32215;DHT22;18708;53.124;23.190;2023-06-22T09:29:54;29.20;99.90
32215;DHT22;18708;53.124;23.190;2023-06-22T09:32:19;29.10;99.80
32215;DHT22;18708;53.124;23.190;2023-06-22T09:34:45;29.00;99.90
32215;DHT22;18708;53.124;23.190;2023-06-22T09:37:11;29.00;99.90
32215;DHT22;18708;53.124;23.190;2023-06-22T09:39:36;28.80;99.90
32215;DHT22;18708;53.124;23.190;2023-06-22T09:42:02;28.70;99.90
32215;DHT22;18708;53.124;23.190;2023-06-22T09:44:28;28.30;99.90
32215;DHT22;18708;53.124;23.190;2023-06-22T09:46:54;27.40;99.90
32215;DHT22;18708;53.124;23.190;2023-06-22T09:49:19;26.60;99.90
32215;DHT22;18708;53.124;23.190;2023-06-22T09:51:45;25.90;99.90
32215;DHT22;18708;53.124;23.190;2023-06-22T09:54:10;25.10;99.90
32215;DHT22;18708;53.124;23.190;2023-06-22T09:56:36;24.40;99.90
32215;DHT22;18708;53.124;23.190;2023-06-22T09:59:03;23.90;99.90
32215;DHT22;18708;53.124;23.190;2023-06-22T10:01:28;23.50;99.90
32215;DHT22;18708;53.124;23.190;2023-06-22T10:03:55;23.20;99.90
32215;DHT22;18708;53.124;23.190;2023-06-22T10:06:22;23.20;99.90
32215;DHT22;18708;53.124;23.190;2023-06-22T10:08:47;23.20;99.90
32215;DHT22;18708;53.124;23.190;2023-06-22T10:11:16;23.20;99.90
32215;DHT22;18708;53.124;23.190;2023-06-22T10:13:42;23.20;99.90
32215;DHT22;18708;53.124;23.190;2023-06-22T10:16:07;23.40;99.90
32215;DHT22;18708;53.124;23.190;2023-06-22T10:18:33;23.40;99.90
32215;DHT22;18708;53.124;23.190;2023-06-22T10:20:59;23.50;99.90
32215;DHT22;18708;53.124;23.190;2023-06-22T10:23:25;23.80;99.90
32215;DHT22;18708;53.124;23.190;2023-06-22T10:25:50;24.00;99.90
32215;DHT22;18708;53.124;23.190;2023-06-22T10:28:16;24.20;99.90
32215;DHT22;18708;53.124;23.190;2023-06-22T10:30:42;24.20;99.90
32215;DHT22;18708;53.124;23.190;2023-06-22T10:33:09;24.40;99.90
32215;DHT22;18708;53.124;23.190;2023-06-22T10:35:35;24.60;99.90
32215;DHT22;18708;53.124;23.190;2023-06-22T10:38:03;24.50;99.90
32215;DHT22;18708;53.124;23.190;2023-06-22T10:40:29;24.40;99.90
32215;DHT22;18708;53.124;23.190;2023-06-22T10:42:54;24.30;99.90
32215;DHT22;18708;53.124;23.190;2023-06-22T10:45:20;24.60;99.90
32215;DHT22;18708;53.124;23.190;2023-06-22T10:47:46;25.20;99.90
32215;DHT22;18708;53.124;23.190;2023-06-22T10:50:12;25.40;99.90
32215;DHT22;18708;53.124;23.190;2023-06-22T10:52:38;25.40;99.90
32215;DHT22;18708;53.124;23.190;2023-06-22T10:55:04;25.50;99.90
32215;DHT22;18708;53.124;23.190;2023-06-22T10:57:30;25.30;99.90
32215;DHT22;18708;53.124;23.190;2023-06-22T10:59:55;25.20;99.90
32215;DHT22;18708;53.124;23.190;2023-06-22T11:02:21;25.20;99.90
32215;DHT22;18708;53.124;23.190;2023-06-22T11:04:47;25.20;99.90
32215;DHT22;18708;53.124;23.190;2023-06-22T11:07:13;25.60;99.90
32215;DHT22;18708;53.124;23.190;2023-06-22T11:09:39;26.00;99.90
32215;DHT22;18708;53.124;23.190;2023-06-22T11:12:06;26.40;99.90
32215;DHT22;18708;53.124;23.190;2023-06-22T11:14:31;26.60;99.90
32215;DHT22;18708;53.124;23.190;2023-06-22T11:16:59;26.80;99.90
32215;DHT22;18708;53.124;23.190;2023-06-22T11:19:24;27.10;99.90
32215;DHT22;18708;53.124;23.190;2023-06-22T11:21:50;27.10;99.90
32215;DHT22;18708;53.124;23.190;2023-06-22T11:24:16;27.40;99.90
32215;DHT22;18708;53.124;23.190;2023-06-22T11:26:42;27.40;99.90
32215;DHT22;18708;53.124;23.190;2023-06-22T11:29:08;27.30;99.90
32215;DHT22;18708;53.124;23.190;2023-06-22T11:31:35;27.10;99.90
32215;DHT22;18708;53.124;23.190;2023-06-22T11:34:01;27.00;99.90
32215;DHT22;18708;53.124;23.190;2023-06-22T11:36:27;27.10;99.90
32215;DHT22;18708;53.124;23.190;2023-06-22T11:38:54;27.80;99.90
32215;DHT22;18708;53.124;23.190;2023-06-22T11:41:20;28.90;99.90
32215;DHT22;18708;53.124;23.190;2023-06-22T11:43:45;28.90;99.90
32215;DHT22;18708;53.124;23.190;2023-06-22T11:46:11;28.70;99.90
32215;DHT22;18708;53.124;23.190;2023-06-22T11:48:37;28.60;99.90
32215;DHT22;18708;53.124;23.190;2023-06-22T11:51:03;28.20;99.90
32215;DHT22;18708;53.124;23.190;2023-06-22T11:53:29;28.00;99.90
32215;DHT22;18708;53.124;23.190;2023-06-22T11:55:56;27.70;99.90
32215;DHT22;18708;53.124;23.190;2023-06-22T11:58:22;27.10;99.90
32215;DHT22;18708;53.124;23.190;2023-06-22T12:00:48;27.00;99.90
32215;DHT22;18708;53.124;23.190;2023-06-22T12:03:14;26.90;99.90
32215;DHT22;18708;53.124;23.190;2023-06-22T12:05:40;27.10;99.90
32215;DHT22;18708;53.124;23.190;2023-06-22T12:08:06;27.40;99.90
32215;DHT22;18708;53.124;23.190;2023-06-22T12:10:32;27.40;99.90
32215;DHT22;18708;53.124;23.190;2023-06-22T12:12:58;27.40;99.90
32215;DHT22;18708;53.124;23.190;2023-06-22T12:15:26;27.00;99.90
32215;DHT22;18708;53.124;23.190;2023-06-22T12:17:52;27.20;99.90
32215;DHT22;18708;53.124;23.190;2023-06-22T12:20:17;27.40;99.90
32215;DHT22;18708;53.124;23.190;2023-06-22T12:22:44;27.30;99.90
32215;DHT22;18708;53.124;23.190;2023-06-22T12:25:10;27.10;99.90
32215;DHT22;18708;53.124;23.190;2023-06-22T12:27:35;27.10;99.90
32215;DHT22;18708;53.124;23.190;2023-06-22T12:30:02;27.20;99.90
32215;DHT22;18708;53.124;23.190;2023-06-22T12:32:28;27.50;99.90
32215;DHT22;18708;53.124;23.190;2023-06-22T12:34:54;28.10;99.90
32215;DHT22;18708;53.124;23.190;2023-06-22T12:37:20;27.70;99.90
32215;DHT22;18708;53.124;23.190;2023-06-22T12:39:46;27.80;99.90
32215;DHT22;18708;53.124;23.190;2023-06-22T12:42:11;27.90;99.90
32215;DHT22;18708;53.124;23.190;2023-06-22T12:44:38;27.80;99.90
32215;DHT22;18708;53.124;23.190;2023-06-22T12:47:05;27.70;99.90
32215;DHT22;18708;53.124;23.190;2023-06-22T12:49:31;27.80;99.90
32215;DHT22;18708;53.124;23.190;2023-06-22T12:51:57;28.40;99.90
32215;DHT22;18708;53.124;23.190;2023-06-22T12:54:22;28.30;99.90
32215;DHT22;18708;53.124;23.190;2023-06-22T12:56:50;27.90;99.90
32215;DHT22;18708;53.124;23.190;2023-06-22T12:59:15;27.50;99.90
32215;DHT22;18708;53.124;23.190;2023-06-22T13:01:43;27.30;99.90
32215;DHT22;18708;53.124;23.190;2023-06-22T13:04:09;27.80;99.90
32215;DHT22;18708;53.124;23.190;2023-06-22T13:06:36;28.00;99.90
32215;DHT22;18708;53.124;23.190;2023-06-22T13:09:02;27.50;99.90
32215;DHT22;18708;53.124;23.190;2023-06-22T13:11:30;27.20;99.90
32215;DHT22;18708;53.124;23.190;2023-06-22T13:13:56;27.20;99.90
32215;DHT22;18708;53.124;23.190;2023-06-22T13:16:21;27.30;99.90
32215;DHT22;18708;53.124;23.190;2023-06-22T13:18:47;27.50;99.90
32215;DHT22;18708;53.124;23.190;2023-06-22T13:21:13;28.10;99.90
32215;DHT22;18708;53.124;23.190;2023-06-22T13:23:39;28.40;99.90
32215;DHT22;18708;53.124;23.190;2023-06-22T13:26:05;28.40;99.90
32215;DHT22;18708;53.124;23.190;2023-06-22T13:28:31;28.50;99.90
32215;DHT22;18708;53.124;23.190;2023-06-22T13:30:57;28.20;98.70
32215;DHT22;18708;53.124;23.190;2023-06-22T13:33:23;28.10;99.60
32215;DHT22;18708;53.124;23.190;2023-06-22T13:35:48;27.90;99.90
32215;DHT22;18708;53.124;23.190;2023-06-22T13:38:14;27.80;99.90
32215;DHT22;18708;53.124;23.190;2023-06-22T13:40:40;28.00;99.90
32215;DHT22;18708;53.124;23.190;2023-06-22T13:43:06;28.30;99.90
32215;DHT22;18708;53.124;23.190;2023-06-22T13:45:32;28.50;98.20
32215;DHT22;18708;53.124;23.190;2023-06-22T13:47:58;28.20;98.30
32215;DHT22;18708;53.124;23.190;2023-06-22T13:50:24;28.20;97.40
32215;DHT22;18708;53.124;23.190;2023-06-22T13:52:49;28.20;99.90
32215;DHT22;18708;53.124;23.190;2023-06-22T13:55:15;28.40;98.10
32215;DHT22;18708;53.124;23.190;2023-06-22T13:57:41;28.30;99.60
32215;DHT22;18708;53.124;23.190;2023-06-22T14:00:08;28.60;98.10
32215;DHT22;18708;53.124;23.190;2023-06-22T14:02:34;28.70;96.60
32215;DHT22;18708;53.124;23.190;2023-06-22T14:05:00;28.60;95.80
32215;DHT22;18708;53.124;23.190;2023-06-22T14:07:26;28.20;95.00
32215;DHT22;18708;53.124;23.190;2023-06-22T14:09:51;27.90;94.80
32215;DHT22;18708;53.124;23.190;2023-06-22T14:12:17;27.80;95.40
32215;DHT22;18708;53.124;23.190;2023-06-22T14:14:46;27.40;95.70
32215;DHT22;18708;53.124;23.190;2023-06-22T14:17:11;27.40;96.40
32215;DHT22;18708;53.124;23.190;2023-06-22T14:19:37;27.50;95.70
32215;DHT22;18708;53.124;23.190;2023-06-22T14:22:03;27.70;94.80
32215;DHT22;18708;53.124;23.190;2023-06-22T14:24:29;27.60;96.10
32215;DHT22;18708;53.124;23.190;2023-06-22T14:26:55;27.80;95.20
32215;DHT22;18708;53.124;23.190;2023-06-22T14:29:21;27.80;96.20
32215;DHT22;18708;53.124;23.190;2023-06-22T14:31:48;27.80;94.60
32215;DHT22;18708;53.124;23.190;2023-06-22T14:34:15;27.80;95.80
32215;DHT22;18708;53.124;23.190;2023-06-22T14:36:41;27.80;97.10
32215;DHT22;18708;53.124;23.190;2023-06-22T14:39:07;28.00;95.10
32215;DHT22;18708;53.124;23.190;2023-06-22T14:41:33;28.10;93.70
32215;DHT22;18708;53.124;23.190;2023-06-22T14:43:58;28.10;91.70
32215;DHT22;18708;53.124;23.190;2023-06-22T14:46:24;28.20;91.80
32215;DHT22;18708;53.124;23.190;2023-06-22T14:48:50;28.20;92.20
32215;DHT22;18708;53.124;23.190;2023-06-22T14:51:15;28.00;92.80
32215;DHT22;18708;53.124;23.190;2023-06-22T14:53:43;28.00;92.30
32215;DHT22;18708;53.124;23.190;2023-06-22T14:56:08;27.70;93.30
32215;DHT22;18708;53.124;23.190;2023-06-22T14:58:34;27.40;94.40
32215;DHT22;18708;53.124;23.190;2023-06-22T15:01:02;27.30;94.40
32215;DHT22;18708;53.124;23.190;2023-06-22T15:03:29;27.50;94.60
32215;DHT22;18708;53.124;23.190;2023-06-22T15:05:57;27.30;93.90
32215;DHT22;18708;53.124;23.190;2023-06-22T15:08:23;27.20;93.60
32215;DHT22;18708;53.124;23.190;2023-06-22T15:10:51;27.10;93.70